Terminal Aerodrome Forecast
Issued by NWS

Home | Current Version | Previous Version | Text Only | Print | Product List | Glossary On
Versions: 1 2 3 4 5 6 7 8 9 10 11 12 13 14 15 16 17 18 19 20 21 22 23 24 25 26 27 28 29 30 31 32 33 34 35 36 37 38 39 40 41 42 43 44 45 46 47 48
000
FTUS45 KGJT 012326
TAFEGE
TAF
KEGE 012326Z 0200/0224 20020KT P6SM FEW150
     FM020100 VRB03KT P6SM BKN100
     FM021200 09004KT P6SM VCSH BKN060
     FM021800 24003KT P6SM VCSH OVC030
     FM022300 23007KT P6SM VCSH BKN080
      AMD LTD TO CLD VIS AND WIND 0206/0214=

USA.gov is the U.S. government's official web portal to all federal, state and local government web resources and services.